Time;durP1;ratioP1;P1;durP2;ratioP2;P2;SDS_P1;SDS_P2;PMS_P1;PMS_P2;Temp;Humidity;BMP_temperature;BMP_pressure;BME280_temperature;BME280_humidity;BME280_pressure;Samples;Min_cycle;Max_cycle;Signal;HPM_P1;HPM_P2
2022/08/22 00:01:27;;;;;;;4.57;3.10;;;29.90;99.90;;;;;;5086054;22;20056;-51
2022/08/22 00:04:06;;;;;;;5.43;3.53;;;29.90;99.90;;;;;;5060027;28;20036;-51
2022/08/22 00:06:41;;;;;;;6.07;3.08;;;29.90;99.90;;;;;;5055432;28;20134;-52
2022/08/22 00:09:23;;;;;;;5.50;3.58;;;29.90;99.90;;;;;;5073498;28;20384;-51
2022/08/22 00:11:56;;;;;;;4.03;3.03;;;29.90;99.90;;;;;;5073178;28;20028;-51
2022/08/22 00:15:05;;;;;;;3.58;3.22;;;29.90;99.90;;;;;;5073077;28;20052;-52
2022/08/22 00:17:59;;;;;;;5.05;3.17;;;29.90;99.90;;;;;;5043909;28;20041;-51
2022/08/22 00:20:31;;;;;;;3.63;3.05;;;29.90;99.90;;;;;;5054724;28;20453;-51
2022/08/22 00:23:12;;;;;;;5.53;3.05;;;29.90;99.90;;;;;;5072962;28;20035;-51
2022/08/22 00:26:03;;;;;;;4.88;3.55;;;29.90;99.90;;;;;;5072960;28;20032;-53
2022/08/22 00:28:39;;;;;;;4.05;3.10;;;29.80;99.90;;;;;;5072963;28;20112;-51
2022/08/22 00:31:23;;;;;;;3.65;2.60;;;29.80;99.90;;;;;;5072682;28;20024;-51
2022/08/22 00:34:16;;;;;;;5.13;3.38;;;29.80;99.90;;;;;;5072688;28;20044;-50
2022/08/22 00:36:42;;;;;;;3.38;2.95;;;29.80;99.90;;;;;;5073189;28;20021;-52
2022/08/22 00:39:15;;;;;;;4.00;3.40;;;29.80;99.90;;;;;;5072564;28;20056;-51
2022/08/22 00:42:08;;;;;;;5.15;3.30;;;29.80;99.90;;;;;;5072681;28;20055;-51
2022/08/22 00:44:58;;;;;;;3.60;3.08;;;29.80;99.90;;;;;;5072595;28;20476;-50
2022/08/22 00:48:18;;;;;;;5.50;3.13;;;29.80;99.90;;;;;;5072487;28;20032;-51
2022/08/22 00:50:58;;;;;;;3.85;3.30;;;29.70;99.90;;;;;;5010318;28;20033;-51
2022/08/22 00:53:30;;;;;;;5.78;3.45;;;29.70;99.90;;;;;;5065482;28;20076;-51
2022/08/22 00:56:17;;;;;;;4.80;3.38;;;29.70;99.90;;;;;;5072407;28;20150;-50
2022/08/22 00:59:11;;;;;;;4.47;3.05;;;29.70;99.90;;;;;;5071450;28;20036;-51
2022/08/22 01:02:02;;;;;;;3.72;3.10;;;29.70;99.90;;;;;;5083186;22;20052;-48
2022/08/22 01:04:44;;;;;;;4.78;3.40;;;29.70;99.90;;;;;;5071923;28;20075;-48
2022/08/22 01:07:31;;;;;;;4.80;3.15;;;29.70;99.90;;;;;;5071833;28;20033;-48
2022/08/22 01:09:59;;;;;;;4.20;3.00;;;29.70;99.90;;;;;;5071824;28;20024;-49
2022/08/22 01:12:55;;;;;;;4.15;3.38;;;29.70;99.90;;;;;;5071638;28;20087;-48
2022/08/22 01:15:24;;;;;;;3.92;3.28;;;29.70;99.90;;;;;;5071636;28;20048;-48
2022/08/22 01:17:56;;;;;;;6.20;3.35;;;29.70;99.90;;;;;;5071636;28;20082;-48
2022/08/22 01:20:36;;;;;;;4.18;3.42;;;29.70;99.90;;;;;;5071677;28;20032;-49
2022/08/22 01:23:19;;;;;;;3.65;3.10;;;29.70;99.90;;;;;;5071672;28;20104;-49
2022/08/22 01:26:06;;;;;;;4.15;3.15;;;29.70;99.90;;;;;;5071590;28;20020;-49
2022/08/22 01:29:10;;;;;;;3.80;3.10;;;29.70;99.90;;;;;;5071518;28;20324;-49
2022/08/22 01:32:11;;;;;;;4.32;3.38;;;29.70;99.90;;;;;;5071448;28;20028;-49
2022/08/22 01:35:02;;;;;;;5.22;3.17;;;29.70;99.90;;;;;;5071402;28;20510;-49
2022/08/22 01:37:45;;;;;;;3.60;3.30;;;29.70;99.90;;;;;;5071350;28;20032;-49
2022/08/22 01:40:51;;;;;;;4.00;3.22;;;29.70;99.90;;;;;;5071388;28;20490;-49
2022/08/22 01:43:19;;;;;;;4.07;3.30;;;29.70;99.90;;;;;;5071581;28;20463;-49
2022/08/22 01:45:54;;;;;;;4.72;3.00;;;29.60;99.90;;;;;;5071329;28;20024;-49
2022/08/22 01:48:45;;;;;;;3.70;3.30;;;29.60;99.90;;;;;;5071193;28;20046;-49
2022/08/22 01:51:27;;;;;;;3.45;3.15;;;29.60;99.90;;;;;;5071119;28;20035;-49
2022/08/22 01:54:33;;;;;;;4.18;3.30;;;29.60;99.90;;;;;;5071093;28;20120;-50
2022/08/22 01:57:06;;;;;;;5.10;3.83;;;29.60;99.90;;;;;;5048097;28;20033;-49
2022/08/22 01:59:45;;;;;;;3.92;3.30;;;29.60;99.90;;;;;;5071541;28;20510;-50
2022/08/22 02:02:17;;;;;;;4.10;3.67;;;29.50;99.90;;;;;;5071022;28;20487;-49
2022/08/22 02:05:04;;;;;;;3.85;3.13;;;29.50;99.90;;;;;;5071006;28;20017;-49
2022/08/22 02:07:59;;;;;;;5.60;3.53;;;29.50;99.90;;;;;;5070875;28;20427;-49
2022/08/22 02:10:40;;;;;;;3.72;2.85;;;29.50;99.90;;;;;;5027642;28;20028;-49
2022/08/22 02:13:22;;;;;;;3.78;2.92;;;29.60;99.90;;;;;;5070719;28;20093;-49
2022/08/22 02:16:11;;;;;;;4.00;3.28;;;29.50;99.90;;;;;;5071116;28;20020;-48
2022/08/22 02:19:04;;;;;;;4.95;3.10;;;29.50;99.90;;;;;;5070919;28;20029;-48
2022/08/22 02:21:54;;;;;;;4.28;3.28;;;29.50;99.90;;;;;;5070426;28;20173;-49
2022/08/22 02:24:26;;;;;;;4.28;3.53;;;29.50;99.90;;;;;;5071053;28;20095;-49
2022/08/22 02:27:03;;;;;;;4.00;2.95;;;29.50;99.90;;;;;;5070929;28;20255;-49
2022/08/22 02:29:47;;;;;;;3.83;3.28;;;29.50;99.90;;;;;;5070948;28;20035;-49
2022/08/22 02:32:34;;;;;;;5.38;3.67;;;29.50;99.90;;;;;;5070762;28;20105;-49
2022/08/22 02:35:13;;;;;;;;;;;29.50;99.90;;;;;;5071318;28;20032;-49
2022/08/22 02:38:01;;;;;;;3.83;3.03;;;29.50;99.90;;;;;;5070950;28;19911;-49
2022/08/22 02:40:36;;;;;;;4.80;3.05;;;29.50;99.90;;;;;;5070675;28;20387;-49
2022/08/22 02:43:22;;;;;;;4.50;2.75;;;29.40;99.90;;;;;;5070727;28;20035;-49
2022/08/22 02:45:54;;;;;;;4.63;3.08;;;29.40;99.90;;;;;;5070831;28;20033;-48
2022/08/22 02:48:26;;;;;;;4.63;3.35;;;29.50;99.90;;;;;;5052891;28;20028;-49
2022/08/22 02:51:08;;;;;;;4.82;3.47;;;29.40;99.90;;;;;;5070617;28;20495;-49
2022/08/22 02:53:36;;;;;;;4.43;3.17;;;29.40;99.90;;;;;;5070562;28;20037;-49
2022/08/22 02:56:13;;;;;;;4.35;3.47;;;29.40;99.90;;;;;;5070402;28;20099;-49
2022/08/22 02:58:52;;;;;;;4.65;3.13;;;29.40;99.90;;;;;;5070553;28;20032;-49
2022/08/22 03:01:27;;;;;;;4.30;3.45;;;29.40;99.90;;;;;;5071028;28;20062;-49
2022/08/22 03:04:13;;;;;;;5.45;3.38;;;29.40;99.90;;;;;;5070435;28;20028;-49
2022/08/22 03:07:06;;;;;;;3.92;3.08;;;29.40;99.90;;;;;;5070261;28;20056;-48
2022/08/22 03:09:40;;;;;;;4.57;3.10;;;29.40;99.90;;;;;;5052919;28;20492;-49
2022/08/22 03:12:37;;;;;;;4.90;3.53;;;29.40;99.90;;;;;;5070313;28;20064;-50
2022/08/22 03:15:15;;;;;;;4.68;3.00;;;29.40;99.90;;;;;;5052471;28;20036;-49
2022/08/22 03:17:55;;;;;;;5.70;3.28;;;29.40;99.90;;;;;;5070422;28;20024;-49
2022/08/22 03:20:45;;;;;;;3.90;3.03;;;29.40;99.90;;;;;;5070555;28;20027;-50
2022/08/22 03:23:23;;;;;;;3.63;3.00;;;29.30;99.90;;;;;;5073604;28;20024;-50
2022/08/22 03:26:02;;;;;;;4.47;2.80;;;29.30;99.90;;;;;;5073999;28;20025;-49
2022/08/22 03:28:36;;;;;;;4.70;3.33;;;29.30;99.90;;;;;;5073907;28;20441;-49
2022/08/22 03:31:14;;;;;;;5.55;3.20;;;29.30;99.90;;;;;;5073824;28;20078;-49
2022/08/22 03:33:41;;;;;;;4.20;3.10;;;29.30;99.90;;;;;;5073700;28;20028;-49
2022/08/22 03:36:15;;;;;;;3.65;3.05;;;29.30;99.90;;;;;;5073836;28;20035;-49
2022/08/22 03:39:14;;;;;;;4.68;2.85;;;29.30;99.90;;;;;;5073647;28;20047;-49
2022/08/22 03:42:07;;;;;;;3.45;2.95;;;29.30;99.90;;;;;;5039848;28;20484;-50
2022/08/22 03:44:58;;;;;;;3.63;2.90;;;29.30;99.90;;;;;;5073522;28;20112;-49
2022/08/22 03:48:01;;;;;;;4.28;2.95;;;29.20;99.90;;;;;;5073770;28;20035;-50
2022/08/22 03:51:04;;;;;;;4.75;3.20;;;29.20;99.90;;;;;;5073414;28;20480;-49
2022/08/22 03:53:43;;;;;;;3.78;2.90;;;29.20;99.90;;;;;;5073269;28;20033;-49
2022/08/22 03:56:24;;;;;;;3.90;3.15;;;29.20;99.90;;;;;;5073265;28;20025;-49
2022/08/22 03:59:12;;;;;;;3.30;2.58;;;29.20;99.90;;;;;;5073282;28;20056;-49
2022/08/22 04:02:03;;;;;;;4.75;3.20;;;29.20;99.90;;;;;;5085557;22;20049;-50
2022/08/22 04:04:42;;;;;;;3.63;2.95;;;29.10;99.90;;;;;;5073151;28;20059;-51
2022/08/22 04:07:28;;;;;;;6.57;2.78;;;29.10;99.90;;;;;;5055326;28;20081;-50
2022/08/22 04:10:06;;;;;;;3.00;2.65;;;29.10;99.90;;;;;;5073338;28;20021;-50
2022/08/22 04:13:13;;;;;;;4.78;3.13;;;29.10;99.90;;;;;;5073086;28;20480;-50
2022/08/22 04:16:08;;;;;;;4.75;2.65;;;29.10;99.90;;;;;;5044116;28;20033;-51
2022/08/22 04:18:42;;;;;;;2.85;2.45;;;29.10;99.90;;;;;;5072645;28;20036;-51
2022/08/22 04:21:36;;;;;;;3.33;2.60;;;29.10;99.90;;;;;;5072893;28;20044;-50
2022/08/22 04:24:23;;;;;;;3.47;2.90;;;29.10;99.90;;;;;;5072879;28;20108;-50
2022/08/22 04:26:58;;;;;;;;;;;29.10;99.90;;;;;;5073386;28;20074;-50
2022/08/22 04:29:36;;;;;;;4.03;3.00;;;29.10;99.90;;;;;;5073122;28;19957;-51
2022/08/22 04:32:16;;;;;;;4.05;2.80;;;29.10;99.90;;;;;;5072374;28;20477;-50
2022/08/22 04:35:00;;;;;;;3.30;2.72;;;29.10;99.90;;;;;;5072605;28;20044;-51
2022/08/22 04:37:55;;;;;;;3.60;2.88;;;29.00;99.90;;;;;;5072899;28;20020;-50
2022/08/22 04:40:30;;;;;;;2.78;2.58;;;29.00;99.90;;;;;;5072288;28;20201;-51
2022/08/22 04:42:59;;;;;;;4.00;2.88;;;29.00;99.90;;;;;;5072852;28;20032;-50
2022/08/22 04:45:40;;;;;;;4.03;2.60;;;29.00;99.90;;;;;;5072625;28;20024;-50
2022/08/22 04:48:32;;;;;;;3.47;2.45;;;29.00;99.90;;;;;;5072432;28;20052;-50
2022/08/22 04:51:24;;;;;;;3.45;2.35;;;29.00;99.90;;;;;;5072636;28;20032;-50
2022/08/22 04:53:58;;;;;;;5.30;2.88;;;29.00;99.90;;;;;;5072149;28;20037;-50
2022/08/22 04:56:58;;;;;;;4.50;2.83;;;29.00;99.90;;;;;;5072080;28;20028;-49
2022/08/22 04:59:25;;;;;;;4.43;2.70;;;29.00;99.90;;;;;;5072328;28;20404;-49
2022/08/22 05:02:05;;;;;;;5.13;2.63;;;29.00;99.90;;;;;;5071863;28;20059;-49
2022/08/22 05:04:39;;;;;;;4.10;2.80;;;28.90;99.90;;;;;;5072227;28;20133;-50
2022/08/22 05:07:11;;;;;;;3.83;2.70;;;29.00;99.90;;;;;;5072123;28;20025;-50
2022/08/22 05:09:42;;;;;;;3.72;2.50;;;29.00;99.90;;;;;;5071936;28;20082;-50
2022/08/22 05:12:13;;;;;;;5.45;2.40;;;29.00;99.90;;;;;;5054167;28;20040;-51
2022/08/22 05:14:46;;;;;;;3.28;2.55;;;28.90;99.90;;;;;;5054089;28;20032;-50
2022/08/22 05:17:16;;;;;;;4.43;2.70;;;28.90;99.90;;;;;;5071914;28;20036;-51
2022/08/22 05:19:49;;;;;;;3.20;2.05;;;28.90;99.90;;;;;;5071966;28;20383;-50
2022/08/22 05:22:23;;;;;;;6.60;2.80;;;28.90;99.90;;;;;;5071798;28;20029;-51
2022/08/22 05:24:54;;;;;;;3.78;2.42;;;28.90;99.90;;;;;;5053890;28;20435;-51
2022/08/22 05:27:27;;;;;;;3.58;2.50;;;28.90;99.90;;;;;;5071638;28;20020;-50
2022/08/22 05:30:15;;;;;;;5.05;2.58;;;28.90;99.90;;;;;;5071612;28;20055;-51
2022/08/22 05:32:43;;;;;;;;;;;28.90;99.90;;;;;;5054046;28;20028;-51
2022/08/22 05:35:09;;;;;;;3.10;2.50;;;28.90;99.90;;;;;;5071620;28;19982;-51
2022/08/22 05:37:42;;;;;;;4.85;2.55;;;28.90;99.90;;;;;;5071509;28;20472;-51
2022/08/22 05:40:17;;;;;;;2.80;2.00;;;28.90;99.90;;;;;;5071354;28;20028;-51
2022/08/22 05:42:44;;;;;;;4.28;2.50;;;28.90;99.90;;;;;;5071500;28;20032;-50
2022/08/22 05:45:12;;;;;;;3.70;3.08;;;28.90;99.90;;;;;;5070908;28;20025;-50
2022/08/22 05:47:52;;;;;;;3.50;2.50;;;28.90;99.90;;;;;;5071592;28;20032;-50
2022/08/22 05:50:32;;;;;;;4.32;2.63;;;28.90;99.90;;;;;;5071359;28;20028;-51
2022/08/22 05:53:07;;;;;;;3.97;2.40;;;28.90;99.90;;;;;;5053344;28;20032;-51
2022/08/22 05:55:48;;;;;;;3.70;2.42;;;28.90;99.90;;;;;;5071531;28;20028;-51
2022/08/22 05:58:32;;;;;;;3.50;2.70;;;28.90;99.90;;;;;;5071303;28;20055;-51
2022/08/22 06:01:23;;;;;;;3.80;2.70;;;28.90;99.90;;;;;;5071187;28;20063;-51
2022/08/22 06:03:49;;;;;;;4.15;2.35;;;28.90;99.90;;;;;;5071124;28;20031;-50
2022/08/22 06:06:18;;;;;;;3.80;2.45;;;28.90;99.90;;;;;;5071196;28;20099;-50
2022/08/22 06:09:16;;;;;;;3.55;2.80;;;28.90;99.90;;;;;;5071190;28;20534;-50
2022/08/22 06:12:13;;;;;;;3.60;2.47;;;28.90;99.90;;;;;;5070435;28;20047;-50
2022/08/22 06:15:17;;;;;;;3.92;2.58;;;28.90;99.90;;;;;;5067847;28;20037;-50
2022/08/22 06:17:49;;;;;;;5.82;3.60;;;28.90;99.90;;;;;;5067721;28;20052;-51
2022/08/22 06:20:49;;;;;;;3.97;2.40;;;28.90;99.90;;;;;;5052968;28;20025;-51
2022/08/22 06:23:25;;;;;;;3.38;2.85;;;28.90;99.90;;;;;;5036309;28;20028;-51
2022/08/22 06:25:54;;;;;;;3.47;2.60;;;28.90;99.90;;;;;;5070885;28;20086;-50
2022/08/22 06:28:25;;;;;;;3.40;2.80;;;28.90;99.90;;;;;;5071157;28;20493;-51
2022/08/22 06:30:54;;;;;;;4.72;2.83;;;28.90;99.90;;;;;;5053174;28;20016;-51
2022/08/22 06:33:30;;;;;;;4.05;2.88;;;28.90;99.90;;;;;;5070980;28;20047;-52
2022/08/22 06:39:01;;;;;;;2.95;2.42;;;29.00;99.90;;;;;;5071091;28;20043;-51
2022/08/22 06:41:31;;;;;;;3.63;2.80;;;29.00;99.90;;;;;;5071145;28;20111;-51
2022/08/22 06:43:59;;;;;;;4.90;2.97;;;29.00;99.90;;;;;;5070732;28;20036;-51
2022/08/22 06:46:27;;;;;;;4.75;3.05;;;29.00;99.90;;;;;;5070839;28;20029;-50
2022/08/22 06:48:55;;;;;;;3.72;2.88;;;29.00;99.90;;;;;;5070894;28;20471;-50
2022/08/22 06:51:23;;;;;;;3.30;2.30;;;29.00;99.90;;;;;;5070551;28;20029;-50
2022/08/22 06:53:54;;;;;;;2.90;2.58;;;29.00;99.90;;;;;;5070597;28;20036;-51
2022/08/22 06:56:37;;;;;;;5.03;3.10;;;29.00;99.90;;;;;;5071346;28;20024;-50
2022/08/22 06:59:13;;;;;;;4.72;2.47;;;29.00;99.90;;;;;;5074882;28;20025;-50
2022/08/22 07:01:52;;;;;;;3.20;2.47;;;29.00;99.90;;;;;;5056518;28;20128;-50
2022/08/22 07:04:25;;;;;;;3.13;2.65;;;29.10;99.90;;;;;;5074494;28;20427;-50
2022/08/22 07:06:53;;;;;;;3.35;2.83;;;29.10;99.90;;;;;;5074308;28;20020;-50
2022/08/22 07:09:25;;;;;;;4.80;3.22;;;29.10;99.90;;;;;;5074263;28;20028;-50
2022/08/22 07:11:53;;;;;;;6.15;3.17;;;29.10;99.90;;;;;;5074189;28;20054;-50
2022/08/22 07:14:37;;;;;;;5.38;2.97;;;29.10;99.90;;;;;;5074142;28;20024;-52
2022/08/22 07:17:07;;;;;;;3.58;2.70;;;29.10;99.90;;;;;;5074179;28;20027;-51
2022/08/22 07:19:43;;;;;;;3.80;2.67;;;29.10;99.90;;;;;;5056393;28;20123;-51
2022/08/22 07:22:16;;;;;;;4.35;2.65;;;29.20;99.90;;;;;;5074270;28;20024;-51
2022/08/22 07:24:51;;;;;;;5.18;2.83;;;29.20;99.90;;;;;;5073948;28;20035;-51
2022/08/22 07:27:41;;;;;;;4.20;2.63;;;29.20;99.90;;;;;;5073950;28;20020;-50
2022/08/22 07:30:10;;;;;;;2.88;2.58;;;29.20;99.90;;;;;;5073952;28;20028;-50
2022/08/22 07:32:50;;;;;;;4.97;3.17;;;29.20;99.90;;;;;;5073923;28;20040;-51
2022/08/22 07:35:21;;;;;;;4.18;3.03;;;29.20;99.90;;;;;;5073649;28;20013;-50
2022/08/22 07:37:59;;;;;;;6.70;3.47;;;29.20;99.90;;;;;;5055913;28;20033;-50
2022/08/22 07:40:28;;;;;;;3.72;2.70;;;29.30;99.90;;;;;;5073919;28;20048;-50
2022/08/22 07:43:18;;;;;;;3.20;2.78;;;29.30;99.90;;;;;;5073717;28;20578;-51
2022/08/22 07:46:06;;;;;;;3.85;2.63;;;29.30;99.90;;;;;;5073753;28;20460;-51
2022/08/22 07:48:44;;;;;;;4.70;3.10;;;29.30;99.90;;;;;;5073592;28;20036;-50
2022/08/22 07:51:16;;;;;;;2.97;2.63;;;29.30;99.90;;;;;;5073695;28;20020;-51
2022/08/22 07:53:57;;;;;;;3.38;2.75;;;29.30;99.90;;;;;;5073385;28;20128;-50
2022/08/22 07:56:27;;;;;;;3.35;2.70;;;29.30;99.90;;;;;;5073473;28;20016;-51
2022/08/22 07:58:58;;;;;;;6.60;3.15;;;29.30;99.90;;;;;;5073415;28;20031;-51
2022/08/22 08:01:25;;;;;;;4.90;2.72;;;29.30;99.90;;;;;;5073034;28;20131;-51
2022/08/22 08:03:58;;;;;;;3.20;2.60;;;29.30;99.90;;;;;;5073154;28;20161;-51
2022/08/22 08:06:27;;;;;;;5.05;3.05;;;29.30;99.90;;;;;;5073189;28;20038;-51
2022/08/22 08:08:54;;;;;;;4.55;3.08;;;29.40;99.90;;;;;;5072514;28;20021;-51
2022/08/22 08:11:21;;;;;;;;;;;29.40;99.90;;;;;;5073671;28;20043;-51
2022/08/22 08:13:53;;;;;;;4.03;2.78;;;29.40;99.90;;;;;;5073057;28;19912;-51
2022/08/22 08:16:23;;;;;;;4.20;2.85;;;29.40;99.90;;;;;;5073268;28;20051;-51
2022/08/22 08:18:52;;;;;;;4.90;3.05;;;29.50;99.90;;;;;;5072921;28;20025;-50
2022/08/22 08:21:32;;;;;;;4.00;2.65;;;29.50;99.90;;;;;;5072850;28;20024;-50
2022/08/22 08:24:00;;;;;;;3.33;2.78;;;29.40;99.90;;;;;;5072852;28;20016;-50
2022/08/22 08:28:32;;;;;;;4.38;2.72;;;29.50;99.90;;;;;;5072766;28;20071;-50
2022/08/22 08:29:27;;;;;;;4.05;2.92;;;29.50;99.90;;;;;;5072475;28;20032;-49
2022/08/22 08:31:54;;;;;;;5.28;2.50;;;29.50;99.90;;;;;;5072596;28;20073;-50
2022/08/22 08:34:25;;;;;;;4.68;2.83;;;29.50;99.90;;;;;;5072590;28;20101;-50
2022/08/22 08:36:59;;;;;;;4.28;3.05;;;29.50;99.90;;;;;;5072497;28;20413;-50
2022/08/22 08:39:39;;;;;;;3.97;3.50;;;29.50;99.90;;;;;;5072515;28;20107;-51
2022/08/22 08:43:25;;;;;;;3.60;2.38;;;29.50;99.90;;;;;;5072339;28;20029;-50
2022/08/22 08:45:41;;;;;;;6.07;3.42;;;29.50;99.90;;;;;;5072394;28;20055;-50
2022/08/22 08:48:23;;;;;;;5.13;3.20;;;29.50;99.90;;;;;;5072468;28;20035;-51
2022/08/22 08:51:12;;;;;;;3.58;2.92;;;29.50;99.90;;;;;;5072163;28;20479;-51
2022/08/22 08:53:38;;;;;;;3.60;3.08;;;29.50;99.90;;;;;;5072475;28;20071;-51
2022/08/22 08:56:24;;;;;;;5.07;3.33;;;29.50;99.90;;;;;;5054257;28;20448;-51
2022/08/22 08:59:15;;;;;;;6.47;3.03;;;29.50;99.90;;;;;;5072247;28;20052;-51
2022/08/22 09:01:43;;;;;;;6.20;3.40;;;29.50;99.90;;;;;;5072090;28;20135;-51
2022/08/22 09:04:24;;;;;;;5.68;3.70;;;29.50;99.90;;;;;;5054184;28;20062;-51
2022/08/22 09:06:50;;;;;;;3.40;2.80;;;29.50;99.90;;;;;;5072107;28;20031;-51
2022/08/22 09:09:42;;;;;;;3.85;3.00;;;29.50;99.90;;;;;;5072180;28;20032;-52
2022/08/22 09:12:17;;;;;;;2.80;2.22;;;29.50;99.90;;;;;;5040256;28;20407;-52
2022/08/22 09:14:48;;;;;;;5.43;3.00;;;29.60;99.90;;;;;;5071988;28;20032;-52
2022/08/22 09:17:27;;;;;;;4.22;2.80;;;29.60;99.90;;;;;;5071882;28;20565;-52
2022/08/22 09:20:03;;;;;;;3.70;2.70;;;29.50;99.90;;;;;;5071026;28;20024;-52
2022/08/22 09:22:55;;;;;;;3.63;2.72;;;29.60;99.90;;;;;;5071755;28;20032;-51
2022/08/22 09:25:33;;;;;;;3.45;2.95;;;29.60;99.90;;;;;;5071607;28;20491;-52
2022/08/22 09:28:20;;;;;;;3.78;2.65;;;29.60;99.90;;;;;;5071647;28;20029;-51
2022/08/22 09:30:54;;;;;;;5.15;2.47;;;29.60;99.90;;;;;;5071992;28;20028;-51
2022/08/22 09:33:23;;;;;;;2.67;2.47;;;29.60;99.90;;;;;;5071537;28;20044;-52
2022/08/22 09:35:52;;;;;;;3.25;2.90;;;29.70;99.90;;;;;;5071501;28;20021;-52
2022/08/22 09:38:39;;;;;;;3.03;2.60;;;29.70;99.90;;;;;;5071629;28;20089;-52
2022/08/22 09:41:20;;;;;;;4.55;3.53;;;29.60;99.90;;;;;;5071508;28;20033;-51
2022/08/22 09:43:51;;;;;;;4.55;2.92;;;29.60;99.90;;;;;;5071556;28;20267;-52
2022/08/22 09:46:31;;;;;;;3.80;2.67;;;29.70;99.90;;;;;;5071657;28;20017;-51
2022/08/22 09:49:20;;;;;;;5.38;2.80;;;29.70;99.90;;;;;;5071275;28;20093;-52
2022/08/22 09:52:07;;;;;;;5.28;3.05;;;29.60;99.90;;;;;;5063130;28;20037;-52
2022/08/22 09:54:41;;;;;;;4.18;3.28;;;29.70;99.90;;;;;;5071382;28;20056;-51
2022/08/22 09:57:41;;;;;;;3.55;2.80;;;29.70;99.90;;;;;;5071169;28;20103;-52
2022/08/22 10:00:12;;;;;;;2.97;2.67;;;29.70;99.90;;;;;;5070933;28;20137;-52
2022/08/22 10:02:50;;;;;;;4.38;3.10;;;29.70;99.90;;;;;;5071052;28;20086;-52
2022/08/22 10:05:32;;;;;;;5.80;3.17;;;29.80;99.90;;;;;;5071412;28;20055;-51
2022/08/22 10:08:18;;;;;;;4.05;3.05;;;29.70;99.90;;;;;;5071159;28;20034;-52
2022/08/22 10:10:45;;;;;;;4.30;3.15;;;29.70;99.90;;;;;;5071195;28;20024;-52
2022/08/22 10:13:29;;;;;;;6.15;3.35;;;29.70;99.90;;;;;;5070938;28;20066;-52
2022/08/22 10:16:17;;;;;;;4.18;3.03;;;29.80;99.90;;;;;;5053117;28;20039;-52
2022/08/22 10:19:15;;;;;;;3.88;3.38;;;29.80;99.90;;;;;;5071122;28;20104;-52
2022/08/22 10:22:18;;;;;;;4.63;3.15;;;29.80;99.90;;;;;;5071106;28;20040;-51
2022/08/22 10:25:04;;;;;;;4.82;3.35;;;29.80;99.90;;;;;;5071085;28;20029;-51
2022/08/22 10:27:48;;;;;;;3.90;2.97;;;29.80;99.90;;;;;;5070878;28;20021;-51
2022/08/22 10:30:23;;;;;;;4.30;3.53;;;29.90;99.90;;;;;;5071278;28;20049;-52
2022/08/22 10:32:51;;;;;;;4.72;3.55;;;29.90;99.90;;;;;;5074912;28;20016;-51
2022/08/22 10:35:20;;;;;;;4.75;3.05;;;29.90;99.90;;;;;;5075127;28;20025;-51
2022/08/22 10:38:02;;;;;;;3.20;2.90;;;29.90;99.90;;;;;;5075086;28;20021;-51
2022/08/22 10:41:10;;;;;;;4.82;3.65;;;29.90;99.90;;;;;;5057002;28;20387;-51
2022/08/22 10:43:54;;;;;;;4.78;3.63;;;29.90;99.90;;;;;;5074831;28;20043;-52
2022/08/22 10:46:43;;;;;;;4.10;3.05;;;29.90;99.90;;;;;;5074972;28;20024;-52
2022/08/22 10:49:30;;;;;;;4.15;3.10;;;29.90;99.90;;;;;;5074097;28;20036;-51
2022/08/22 10:52:21;;;;;;;3.63;3.33;;;30.00;99.90;;;;;;5056745;28;20480;-51
2022/08/22 10:54:54;;;;;;;5.88;3.33;;;30.00;99.90;;;;;;5075093;28;20484;-52
2022/08/22 10:57:50;;;;;;;3.88;3.45;;;30.00;99.90;;;;;;5074814;28;20372;-52
2022/08/22 11:00:33;;;;;;;4.07;3.45;;;30.00;99.90;;;;;;5063205;28;20088;-51
2022/08/22 11:03:07;;;;;;;3.80;2.92;;;30.10;99.90;;;;;;5056508;28;20494;-51
2022/08/22 11:05:36;;;;;;;3.78;3.38;;;30.00;99.90;;;;;;5074213;28;20031;-51
2022/08/22 11:08:39;;;;;;;4.20;3.38;;;30.10;99.90;;;;;;5056505;28;20377;-52
2022/08/22 11:11:18;;;;;;;3.67;3.13;;;30.10;99.90;;;;;;5056517;28;20044;-52
2022/08/22 11:14:18;;;;;;;3.97;3.58;;;30.10;99.90;;;;;;5074220;28;20139;-51
2022/08/22 11:16:55;;;;;;;3.83;3.35;;;30.10;99.90;;;;;;5073916;28;20029;-50
2022/08/22 11:19:58;;;;;;;5.05;3.33;;;30.10;99.90;;;;;;5074115;28;20038;-51
2022/08/22 11:23:02;;;;;;;4.72;3.65;;;30.20;99.90;;;;;;5074259;28;20017;-51
2022/08/22 11:25:53;;;;;;;7.30;3.65;;;30.20;99.90;;;;;;5074016;28;20074;-50
2022/08/22 11:28:58;;;;;;;4.10;3.42;;;30.20;99.90;;;;;;5074090;28;20032;-50
2022/08/22 11:31:54;;;;;;;3.45;3.15;;;30.20;99.90;;;;;;5074028;28;20021;-51
2022/08/22 11:34:34;;;;;;;4.53;3.57;;;30.30;99.90;;;;;;5074254;28;20040;-52
2022/08/22 11:37:06;;;;;;;3.30;3.00;;;30.30;99.90;;;;;;5073964;28;20265;-52
2022/08/22 11:39:38;;;;;;;4.53;3.53;;;30.30;99.90;;;;;;5073843;28;20024;-51
2022/08/22 11:42:27;;;;;;;4.38;3.45;;;30.30;99.90;;;;;;5054861;28;20028;-53
2022/08/22 11:45:00;;;;;;;4.78;3.55;;;30.30;99.90;;;;;;5055937;28;20112;-50
2022/08/22 11:47:32;;;;;;;3.53;3.10;;;30.30;99.90;;;;;;5073585;28;20067;-50
2022/08/22 11:50:02;;;;;;;4.00;3.30;;;30.30;99.90;;;;;;5073692;28;20454;-53
2022/08/22 11:53:14;;;;;;;4.22;3.17;;;30.40;99.90;;;;;;5073613;28;20040;-51
2022/08/22 11:55:55;;;;;;;3.92;3.10;;;30.40;99.90;;;;;;5070640;28;20032;-51
2022/08/22 11:58:53;;;;;;;4.13;2.80;;;30.40;99.90;;;;;;5073599;28;20056;-51
2022/08/22 12:01:27;;;;;;;3.42;3.13;;;30.40;99.90;;;;;;5064963;28;20044;-51
2022/08/22 12:04:10;;;;;;;3.03;2.70;;;30.50;99.90;;;;;;5055628;28;20422;-51
2022/08/22 12:06:45;;;;;;;4.57;3.30;;;30.50;99.90;;;;;;5073179;28;20024;-50
2022/08/22 12:09:41;;;;;;;4.25;3.35;;;30.50;99.90;;;;;;5055206;28;20485;-51
2022/08/22 12:12:25;;;;;;;3.40;3.10;;;30.50;99.90;;;;;;5072595;28;20067;-51
2022/08/22 12:15:45;;;;;;;3.50;3.03;;;30.50;99.90;;;;;;5073602;28;20477;-51
2022/08/22 12:18:16;;;;;;;3.67;3.03;;;30.50;99.90;;;;;;5072984;28;20029;-51
2022/08/22 12:21:19;;;;;;;4.05;3.38;;;30.60;99.90;;;;;;5073070;28;20161;-52
2022/08/22 12:24:12;;;;;;;4.30;3.20;;;30.60;99.90;;;;;;5073155;28;20021;-53
2022/08/22 12:26:59;;;;;;;3.13;2.78;;;30.60;99.90;;;;;;5055108;28;20123;-51
2022/08/22 12:29:34;;;;;;;3.75;3.22;;;30.60;99.90;;;;;;5073161;28;20038;-51
2022/08/22 12:32:32;;;;;;;3.42;2.70;;;30.60;99.90;;;;;;5072895;28;20055;-51
2022/08/22 12:35:35;;;;;;;4.72;3.10;;;30.60;99.90;;;;;;5073317;28;20074;-52
2022/08/22 12:38:06;;;;;;;3.92;3.42;;;30.60;99.90;;;;;;5072759;28;20117;-51
2022/08/22 12:41:08;;;;;;;3.45;3.10;;;30.70;99.90;;;;;;5072728;28;20039;-52
2022/08/22 12:43:46;;;;;;;3.35;2.85;;;30.70;99.90;;;;;;5017776;28;20038;-51
2022/08/22 12:46:26;;;;;;;3.17;2.88;;;30.70;99.90;;;;;;5054444;28;20357;-52
2022/08/22 12:49:27;;;;;;;3.45;2.90;;;30.70;99.90;;;;;;5072983;28;20024;-51
2022/08/22 12:52:03;;;;;;;3.92;2.90;;;30.70;99.90;;;;;;5048606;28;20055;-52
2022/08/22 12:55:05;;;;;;;3.30;2.97;;;30.70;99.90;;;;;;5072519;28;20044;-50
2022/08/22 12:57:54;;;;;;;3.30;3.00;;;30.70;99.90;;;;;;5072383;28;20024;-50
2022/08/22 13:00:43;;;;;;;3.20;2.90;;;30.80;99.90;;;;;;5054557;28;20114;-50
2022/08/22 13:03:37;;;;;;;3.42;2.65;;;30.80;99.90;;;;;;5072165;28;20030;-51
2022/08/22 13:06:34;;;;;;;3.72;3.03;;;30.80;99.90;;;;;;5048439;28;20446;-51
2022/08/22 13:09:28;;;;;;;3.45;2.90;;;30.80;99.90;;;;;;5072258;28;20028;-51
2022/08/22 13:12:00;;;;;;;3.95;3.20;;;30.80;99.90;;;;;;5072172;28;20035;-51
2022/08/22 13:14:28;;;;;;;4.07;2.80;;;30.80;99.90;;;;;;5072270;28;20024;-51
2022/08/22 13:16:57;;;;;;;4.18;2.72;;;30.90;99.90;;;;;;5071800;28;20495;-51
2022/08/22 13:19:27;;;;;;;2.65;2.45;;;30.80;99.90;;;;;;5054078;28;20107;-50
2022/08/22 13:22:05;;;;;;;3.13;2.75;;;30.90;99.90;;;;;;5071978;28;20021;-51
2022/08/22 13:24:43;;;;;;;3.75;3.17;;;30.90;99.90;;;;;;5072121;28;20379;-51
2022/08/22 13:27:26;;;;;;;3.05;2.72;;;31.00;99.90;;;;;;5071696;28;20031;-51
2022/08/22 13:29:59;;;;;;;3.55;2.95;;;30.90;99.90;;;;;;5071580;28;20044;-51
2022/08/22 13:32:43;;;;;;;3.03;2.70;;;31.00;99.90;;;;;;5071506;28;20070;-51
2022/08/22 13:35:18;;;;;;;3.55;3.05;;;31.00;99.90;;;;;;5071553;28;20051;-51
2022/08/22 13:37:47;;;;;;;3.17;2.50;;;31.00;99.90;;;;;;5071620;28;20377;-51
2022/08/22 13:40:23;;;;;;;3.38;2.70;;;31.00;99.90;;;;;;5071363;28;20365;-51
2022/08/22 13:43:02;;;;;;;2.88;2.58;;;31.00;99.90;;;;;;5071467;28;20571;-51
2022/08/22 13:45:30;;;;;;;3.30;2.92;;;31.00;99.90;;;;;;5071524;28;20032;-51
2022/08/22 13:48:00;;;;;;;2.92;2.55;;;31.10;99.90;;;;;;5071130;28;20036;-51
2022/08/22 13:50:30;;;;;;;3.22;2.50;;;31.10;99.90;;;;;;5071307;28;20032;-51
2022/08/22 13:53:09;;;;;;;4.88;3.10;;;31.10;99.90;;;;;;5071044;28;20170;-51
2022/08/22 13:55:46;;;;;;;3.20;2.90;;;31.10;99.90;;;;;;5071365;28;20016;-51
2022/08/22 13:58:36;;;;;;;4.00;2.85;;;31.10;99.90;;;;;;5071123;28;20162;-51
2022/08/22 14:01:21;;;;;;;4.10;2.97;;;31.10;99.90;;;;;;5071006;28;20075;-50
2022/08/22 14:03:54;;;;;;;3.90;3.08;;;31.10;99.90;;;;;;5071120;28;20119;-51